Time;durP1;ratioP1;P1;durP2;ratioP2;P2;SDS_P1;SDS_P2;PMS_P1;PMS_P2;Temp;Humidity;BMP_temperature;BMP_pressure;BME280_temperature;BME280_humidity;BME280_pressure;Samples;Min_cycle;Max_cycle;Signal;HPM_P1;HPM_P2
2023/08/02 00:02:11;;;;;;;2.10;1.60;;;18.40;99.90;;;;;;4986961;28;20476;-76
2023/08/02 00:04:37;;;;;;;2.23;1.60;;;18.30;99.90;;;;;;4988865;28;20397;-76
2023/08/02 00:07:03;;;;;;;2.70;1.50;;;18.30;99.90;;;;;;4989625;28;20386;-77
2023/08/02 00:09:29;;;;;;;2.88;1.30;;;18.40;99.90;;;;;;5005433;28;20400;-77
2023/08/02 00:11:55;;;;;;;3.70;1.67;;;18.20;99.90;;;;;;5010535;28;20393;-77
2023/08/02 00:14:21;;;;;;;2.30;1.40;;;18.00;99.90;;;;;;5010543;28;20475;-77
2023/08/02 00:16:46;;;;;;;4.10;1.70;;;18.10;99.90;;;;;;5003567;28;20410;-77
2023/08/02 00:19:12;;;;;;;1.70;1.50;;;18.20;99.90;;;;;;4991206;28;21003;-77
2023/08/02 00:21:37;;;;;;;3.53;1.60;;;18.20;99.90;;;;;;4990699;28;20387;-77
2023/08/02 00:24:03;;;;;;;2.53;1.70;;;18.00;99.90;;;;;;4989594;28;20432;-77
2023/08/02 00:26:29;;;;;;;2.38;1.50;;;17.70;99.90;;;;;;4994436;28;20389;-77
2023/08/02 00:28:54;;;;;;;2.60;1.65;;;17.60;99.90;;;;;;5010477;28;20904;-77
2023/08/02 00:31:20;;;;;;;3.30;1.87;;;17.70;99.90;;;;;;5010575;28;20447;-77
2023/08/02 00:33:46;;;;;;;3.50;1.70;;;17.70;99.90;;;;;;5000571;28;20454;-77
2023/08/02 00:36:11;;;;;;;1.97;1.50;;;17.60;99.90;;;;;;5010045;28;20435;-77
2023/08/02 00:38:37;;;;;;;2.90;1.50;;;17.60;99.90;;;;;;5010368;28;20495;-76
2023/08/02 00:41:05;;;;;;;1.90;1.30;;;17.50;99.90;;;;;;5010298;28;20423;-77
2023/08/02 00:43:47;;;;;;;2.70;1.80;;;17.30;99.90;;;;;;5010015;28;20397;-76
2023/08/02 00:46:15;;;;;;;1.85;1.60;;;17.10;99.90;;;;;;4987275;28;20893;-76
2023/08/02 00:48:42;;;;;;;2.53;1.55;;;17.00;99.90;;;;;;4990536;28;20394;-75
2023/08/02 00:51:12;;;;;;;5.72;1.70;;;16.90;99.90;;;;;;5007942;28;20797;-76
2023/08/02 00:53:38;;;;;;;2.90;1.60;;;16.70;99.90;;;;;;5010131;28;20420;-76
2023/08/02 00:56:04;;;;;;;2.00;1.60;;;16.60;99.90;;;;;;5011180;28;20399;-76
2023/08/02 00:58:30;;;;;;;2.08;1.67;;;16.60;99.90;;;;;;5013765;28;20423;-76
2023/08/02 01:01:06;;;;;;;3.47;1.73;;;16.60;99.90;;;;;;5008881;28;20428;-77
2023/08/02 01:03:32;;;;;;;2.15;1.70;;;16.60;99.90;;;;;;5012393;28;20781;-76
2023/08/02 01:06:06;;;;;;;4.45;2.00;;;16.60;99.90;;;;;;5017017;28;20424;-76
2023/08/02 01:08:35;;;;;;;4.47;1.98;;;16.70;99.90;;;;;;5016023;28;20384;-77
2023/08/02 01:11:26;;;;;;;2.45;2.00;;;16.70;99.90;;;;;;5003444;28;20437;-77
2023/08/02 01:13:55;;;;;;;4.75;2.00;;;16.70;99.90;;;;;;4994268;28;20442;-77
2023/08/02 01:16:23;;;;;;;2.90;1.95;;;16.70;99.90;;;;;;4994089;28;20382;-77
2023/08/02 01:18:49;;;;;;;3.13;1.70;;;16.70;99.90;;;;;;5013082;28;20431;-76
2023/08/02 01:21:14;;;;;;;3.20;1.80;;;16.70;99.90;;;;;;5013233;28;20416;-77
2023/08/02 01:23:41;;;;;;;2.73;1.43;;;16.60;99.90;;;;;;5013347;28;20400;-77
2023/08/02 01:26:06;;;;;;;3.20;1.75;;;16.70;99.90;;;;;;5014276;28;20919;-77
2023/08/02 01:28:44;;;;;;;3.83;2.00;;;18.70;99.90;;;;;;4996250;28;20403;-77
2023/08/02 01:31:12;;;;;;;3.20;2.00;;;16.60;99.90;;;;;;4993698;28;20398;-76
2023/08/02 01:33:43;;;;;;;3.40;1.60;;;16.60;99.90;;;;;;4993334;28;20456;-77
2023/08/02 01:36:08;;;;;;;2.00;1.70;;;16.60;99.90;;;;;;5012313;28;20400;-77
2023/08/02 01:38:34;;;;;;;2.90;1.93;;;16.70;99.90;;;;;;5013076;28;20384;-77
2023/08/02 01:41:00;;;;;;;2.77;1.70;;;16.70;99.90;;;;;;5012984;28;20864;-77
2023/08/02 01:43:25;;;;;;;2.40;1.60;;;16.70;99.90;;;;;;5012988;28;20385;-77
2023/08/02 01:45:51;;;;;;;3.53;2.10;;;16.60;99.90;;;;;;5006211;28;20399;-77
2023/08/02 01:48:16;;;;;;;3.13;2.00;;;16.60;99.90;;;;;;4996010;28;20395;-77
2023/08/02 01:50:42;;;;;;;3.00;2.50;;;16.50;99.90;;;;;;4993005;28;20470;-77
2023/08/02 01:53:07;;;;;;;4.67;1.70;;;16.50;99.90;;;;;;4992828;28;20429;-77
2023/08/02 01:55:33;;;;;;;4.07;1.90;;;16.60;99.90;;;;;;4992693;28;20398;-76
2023/08/02 01:58:00;;;;;;;3.20;1.70;;;16.60;99.90;;;;;;4993631;28;20395;-77
2023/08/02 02:00:25;;;;;;;3.00;1.80;;;16.60;99.90;;;;;;4993726;28;20403;-77
2023/08/02 02:02:51;;;;;;;3.17;1.70;;;16.60;99.90;;;;;;4993466;28;20398;-77
2023/08/02 02:05:16;;;;;;;1.60;1.50;;;16.50;99.90;;;;;;4993782;28;20440;-77
2023/08/02 02:07:42;;;;;;;2.13;1.80;;;16.60;99.90;;;;;;4993243;28;20397;-77
2023/08/02 02:10:08;;;;;;;2.47;1.90;;;16.70;99.90;;;;;;4995726;28;20482;-77
2023/08/02 02:12:33;;;;;;;4.00;1.83;;;16.60;99.90;;;;;;5002758;28;20393;-76
2023/08/02 02:14:59;;;;;;;2.23;2.00;;;16.60;99.90;;;;;;5012028;28;20428;-76
2023/08/02 02:17:24;;;;;;;3.50;2.10;;;16.50;99.90;;;;;;5021500;23;20468;-80
2023/08/02 02:19:50;;;;;;;3.03;2.10;;;16.50;99.90;;;;;;4989416;28;20538;-78
2023/08/02 02:22:15;;;;;;;4.20;2.20;;;16.50;99.90;;;;;;4981214;28;20404;-78
2023/08/02 02:24:41;;;;;;;2.20;1.80;;;16.50;99.90;;;;;;4963758;28;20396;-78
2023/08/02 02:27:06;;;;;;;3.43;1.90;;;16.50;99.90;;;;;;4984583;28;20467;-77
2023/08/02 02:29:32;;;;;;;3.87;2.10;;;16.40;99.90;;;;;;4968043;29;20481;-77
2023/08/02 02:31:57;;;;;;;2.80;1.90;;;16.30;99.90;;;;;;4961647;28;20509;-78
2023/08/02 02:34:23;;;;;;;4.90;2.20;;;16.30;99.90;;;;;;4925384;29;20415;-78
2023/08/02 02:36:49;;;;;;;3.63;2.17;;;16.00;99.90;;;;;;4921438;29;20408;-78
2023/08/02 02:39:15;;;;;;;4.97;2.45;;;16.00;99.90;;;;;;4938208;29;20395;-78
2023/08/02 02:41:40;;;;;;;3.80;2.07;;;15.90;99.90;;;;;;4948714;28;20405;-78
2023/08/02 02:44:06;;;;;;;4.07;2.60;;;15.90;99.90;;;;;;4959396;29;20385;-78
2023/08/02 02:46:31;;;;;;;3.10;2.13;;;15.80;99.90;;;;;;4961353;29;20576;-78
2023/08/02 02:48:57;;;;;;;3.57;2.50;;;15.80;99.90;;;;;;4975487;28;20403;-78
2023/08/02 02:51:22;;;;;;;3.55;2.50;;;15.70;99.90;;;;;;4980992;28;20392;-78
2023/08/02 02:53:48;;;;;;;3.10;2.30;;;15.70;99.90;;;;;;4963192;28;20776;-78
2023/08/02 02:56:14;;;;;;;2.60;2.17;;;15.50;99.90;;;;;;4980086;28;20384;-78
2023/08/02 02:58:39;;;;;;;3.40;2.50;;;15.50;99.90;;;;;;4966739;28;20405;-78
2023/08/02 03:01:05;;;;;;;3.53;2.90;;;15.50;99.90;;;;;;4959863;29;20481;-78
2023/08/02 03:03:30;;;;;;;3.38;2.70;;;15.60;99.90;;;;;;4974883;28;20431;-78
2023/08/02 03:05:56;;;;;;;3.60;2.80;;;15.60;99.90;;;;;;4978936;28;20392;-78
2023/08/02 03:08:21;;;;;;;6.90;3.00;;;15.60;99.90;;;;;;4980628;28;20392;-78
2023/08/02 03:10:47;;;;;;;4.40;2.85;;;15.50;99.90;;;;;;4980319;28;20428;-78
2023/08/02 03:13:12;;;;;;;7.97;3.30;;;15.40;99.90;;;;;;4962913;28;20447;-78
2023/08/02 03:15:38;;;;;;;5.40;2.70;;;15.30;99.90;;;;;;4976645;28;20505;-78
2023/08/02 03:18:03;;;;;;;3.40;2.80;;;15.30;99.90;;;;;;4961172;28;20398;-78
2023/08/02 03:20:29;;;;;;;4.27;2.97;;;15.40;99.90;;;;;;4942823;29;20390;-78
2023/08/02 03:22:54;;;;;;;4.03;2.80;;;15.30;99.90;;;;;;4959050;29;20400;-78
2023/08/02 03:25:20;;;;;;;5.00;3.07;;;15.40;99.90;;;;;;4959658;29;20774;-79
2023/08/02 03:27:45;;;;;;;4.70;3.10;;;15.40;99.90;;;;;;4960521;28;20400;-79
2023/08/02 03:30:11;;;;;;;4.72;3.15;;;15.30;99.90;;;;;;4977441;28;20410;-78
2023/08/02 03:32:36;;;;;;;5.20;3.00;;;15.40;99.90;;;;;;4956993;29;20399;-79
2023/08/02 03:35:02;;;;;;;3.60;3.20;;;15.30;99.90;;;;;;4942371;29;20461;-79
2023/08/02 03:37:27;;;;;;;5.22;2.85;;;15.40;99.90;;;;;;4941491;29;20812;-79
2023/08/02 03:39:53;;;;;;;3.00;2.70;;;15.40;99.90;;;;;;4941855;29;20395;-80
2023/08/02 03:42:18;;;;;;;3.20;2.90;;;15.40;99.90;;;;;;4947388;29;20414;-79
2023/08/02 03:44:44;;;;;;;6.73;3.30;;;15.40;99.90;;;;;;4960554;29;20394;-79
2023/08/02 03:47:09;;;;;;;4.90;3.30;;;15.40;99.90;;;;;;4942019;28;20413;-79
2023/08/02 03:49:36;;;;;;;4.25;2.83;;;15.40;99.90;;;;;;4961264;29;20429;-79
2023/08/02 03:52:02;;;;;;;2.93;2.70;;;15.50;99.90;;;;;;4952817;28;20495;-79
2023/08/02 03:54:28;;;;;;;3.90;2.80;;;15.50;99.90;;;;;;4979651;28;20820;-79
2023/08/02 03:56:53;;;;;;;3.33;2.90;;;15.50;99.90;;;;;;4979146;28;20446;-79
2023/08/02 03:59:19;;;;;;;3.33;2.80;;;15.60;99.90;;;;;;4961020;28;20401;-79
2023/08/02 04:01:44;;;;;;;4.30;3.03;;;15.50;99.90;;;;;;4944187;29;20392;-80
2023/08/02 04:04:10;;;;;;;3.67;2.90;;;15.50;99.90;;;;;;4960470;29;20874;-79
2023/08/02 04:06:36;;;;;;;5.37;3.07;;;15.50;99.90;;;;;;4960750;29;20425;-79
2023/08/02 04:09:01;;;;;;;5.20;3.30;;;15.60;99.90;;;;;;4978030;28;20410;-79
2023/08/02 04:11:27;;;;;;;3.30;3.00;;;15.50;99.90;;;;;;4986721;28;20415;-79
2023/08/02 04:13:52;;;;;;;3.40;2.80;;;15.50;99.90;;;;;;4986796;28;20423;-79
2023/08/02 04:16:18;;;;;;;3.40;2.50;;;15.50;99.90;;;;;;4989730;28;20400;-79
2023/08/02 04:18:43;;;;;;;3.70;2.90;;;15.40;99.90;;;;;;4991216;28;20407;-79
2023/08/02 04:21:09;;;;;;;4.57;3.03;;;15.50;99.90;;;;;;4981186;28;20401;-79
2023/08/02 04:23:34;;;;;;;3.20;2.83;;;15.50;99.90;;;;;;4969016;29;20405;-79
2023/08/02 04:26:09;;;;;;;3.40;3.10;;;15.60;99.90;;;;;;4969415;29;20810;-80
2023/08/02 04:28:34;;;;;;;3.63;2.97;;;15.50;99.90;;;;;;4973002;28;20989;-79
2023/08/02 04:31:00;;;;;;;3.40;3.10;;;15.60;99.90;;;;;;4963681;28;20409;-79
2023/08/02 04:33:25;;;;;;;3.73;3.40;;;15.60;99.90;;;;;;4957120;29;20419;-80
2023/08/02 04:35:51;;;;;;;3.70;3.30;;;15.60;99.90;;;;;;4946107;29;20395;-80
2023/08/02 04:38:16;;;;;;;4.90;3.10;;;15.60;99.90;;;;;;4927906;29;20398;-80
2023/08/02 04:40:42;;;;;;;3.30;2.90;;;15.60;99.90;;;;;;4970444;28;20401;-79
2023/08/02 04:43:07;;;;;;;5.88;3.17;;;15.70;99.90;;;;;;4966198;29;20389;-79
2023/08/02 04:45:33;;;;;;;5.53;3.40;;;15.70;99.90;;;;;;4964125;29;20441;-79
2023/08/02 04:47:58;;;;;;;4.40;3.45;;;15.60;99.90;;;;;;4956606;28;20400;-79
2023/08/02 04:50:24;;;;;;;4.53;3.40;;;15.60;99.90;;;;;;4965299;28;20950;-79
2023/08/02 04:52:49;;;;;;;3.90;3.20;;;15.60;99.90;;;;;;4965986;28;20471;-79
2023/08/02 04:55:15;;;;;;;4.00;3.60;;;15.60;99.90;;;;;;4983824;28;20924;-79
2023/08/02 04:57:40;;;;;;;3.83;3.45;;;15.70;99.90;;;;;;4983023;28;20884;-80
2023/08/02 05:00:06;;;;;;;4.60;4.00;;;15.60;99.90;;;;;;4983652;28;20907;-80
2023/08/02 05:02:36;;;;;;;4.22;3.83;;;15.60;99.90;;;;;;4981968;28;20392;-79
2023/08/02 05:05:02;;;;;;;4.13;3.72;;;15.60;99.90;;;;;;4966443;28;20400;-79
2023/08/02 05:07:31;;;;;;;4.33;3.70;;;15.70;99.90;;;;;;4975366;28;20402;-80
2023/08/02 05:09:57;;;;;;;4.45;3.50;;;15.70;99.90;;;;;;4963368;28;20392;-80
2023/08/02 05:12:23;;;;;;;4.63;3.70;;;15.70;99.90;;;;;;4983306;28;20416;-80
2023/08/02 05:14:49;;;;;;;4.00;3.60;;;15.80;99.90;;;;;;4983388;28;20415;-79
2023/08/02 05:17:14;;;;;;;6.60;3.37;;;15.80;99.90;;;;;;4977123;28;20413;-80
2023/08/02 05:19:39;;;;;;;4.50;3.30;;;15.80;99.90;;;;;;4975236;28;20409;-80
2023/08/02 05:22:06;;;;;;;4.70;3.57;;;15.90;99.90;;;;;;4959047;29;20386;-80
2023/08/02 05:24:31;;;;;;;5.20;3.80;;;15.90;99.90;;;;;;4942071;29;20409;-79
2023/08/02 05:26:57;;;;;;;4.57;3.43;;;15.90;99.90;;;;;;4960303;28;20402;-79
2023/08/02 05:29:22;;;;;;;4.27;3.40;;;15.90;99.90;;;;;;4952107;28;20411;-80
2023/08/02 05:31:48;;;;;;;6.00;3.95;;;16.00;99.90;;;;;;4977245;28;20880;-80
2023/08/02 05:34:13;;;;;;;4.00;3.40;;;16.00;99.90;;;;;;4965281;28;20952;-80
2023/08/02 05:36:39;;;;;;;3.50;3.10;;;16.10;99.90;;;;;;4975812;28;20892;-80
2023/08/02 05:39:04;;;;;;;5.20;3.50;;;16.50;99.90;;;;;;4981417;28;20384;-80
2023/08/02 05:41:30;;;;;;;4.10;3.43;;;16.60;99.90;;;;;;4979021;28;20808;-79
2023/08/02 05:43:55;;;;;;;4.30;3.40;;;16.60;99.90;;;;;;4970149;28;20488;-79
2023/08/02 05:46:21;;;;;;;4.30;3.40;;;16.50;99.90;;;;;;4959913;29;20425;-80
2023/08/02 05:48:46;;;;;;;4.53;3.45;;;16.50;99.90;;;;;;4961431;28;20562;-80
2023/08/02 05:51:12;;;;;;;4.38;3.47;;;16.60;99.90;;;;;;4977128;28;20389;-80
2023/08/02 05:53:37;;;;;;;5.07;3.30;;;16.50;99.90;;;;;;4976581;28;20475;-80
2023/08/02 05:56:03;;;;;;;3.85;3.40;;;16.50;99.90;;;;;;4979712;28;20392;-80
2023/08/02 05:58:29;;;;;;;4.22;3.40;;;16.50;99.90;;;;;;4980170;28;20395;-80
2023/08/02 06:00:54;;;;;;;4.23;3.40;;;16.60;99.90;;;;;;4974516;28;20403;-80
2023/08/02 06:03:20;;;;;;;3.50;3.20;;;16.50;99.90;;;;;;4970423;28;20562;-80
2023/08/02 06:05:47;;;;;;;5.40;3.10;;;16.70;99.90;;;;;;4966198;29;20531;-80
2023/08/02 06:08:13;;;;;;;3.10;2.80;;;16.70;99.90;;;;;;4947575;29;20396;-80
2023/08/02 06:10:38;;;;;;;3.10;2.80;;;17.00;99.90;;;;;;4965725;28;20429;-79
2023/08/02 06:13:04;;;;;;;4.60;2.83;;;17.10;99.90;;;;;;4964379;28;20439;-80
2023/08/02 06:15:29;;;;;;;3.30;2.90;;;17.20;99.90;;;;;;4984732;28;20542;-80
2023/08/02 06:17:55;;;;;;;3.95;3.20;;;17.40;99.90;;;;;;4961611;28;20404;-80
2023/08/02 06:20:22;;;;;;;3.40;3.10;;;17.40;99.90;;;;;;4978810;28;20404;-80
2023/08/02 06:22:47;;;;;;;2.90;2.60;;;17.50;99.90;;;;;;4962968;28;20405;-80
2023/08/02 06:25:13;;;;;;;4.85;3.00;;;17.40;99.90;;;;;;4942985;29;20386;-80
2023/08/02 06:27:38;;;;;;;3.20;2.90;;;17.30;99.90;;;;;;4959001;28;20397;-80
2023/08/02 06:30:04;;;;;;;3.30;2.87;;;17.10;99.90;;;;;;4959990;28;20895;-81
2023/08/02 06:32:30;;;;;;;3.30;2.90;;;17.20;99.90;;;;;;4976531;28;20500;-80
2023/08/02 06:34:56;;;;;;;3.40;2.73;;;17.30;99.90;;;;;;4969109;28;20443;-80
2023/08/02 06:37:21;;;;;;;3.60;3.30;;;17.40;99.90;;;;;;4960002;28;20427;-80
2023/08/02 06:39:47;;;;;;;2.93;2.70;;;17.30;99.90;;;;;;4978769;28;20392;-79
2023/08/02 06:42:12;;;;;;;4.55;3.40;;;17.40;99.90;;;;;;4978671;28;20397;-79
2023/08/02 06:44:38;;;;;;;4.00;3.00;;;17.40;99.90;;;;;;4973255;28;20518;-79
2023/08/02 06:47:03;;;;;;;4.30;3.20;;;17.40;99.90;;;;;;4939982;29;20402;-79
2023/08/02 06:49:29;;;;;;;4.00;3.28;;;17.70;99.90;;;;;;4963846;29;20409;-80
2023/08/02 06:51:54;;;;;;;3.40;3.10;;;18.00;99.90;;;;;;4948549;29;20386;-79
2023/08/02 06:54:20;;;;;;;3.97;3.50;;;18.30;99.90;;;;;;4960993;28;20413;-79
2023/08/02 06:56:45;;;;;;;5.38;3.17;;;18.30;99.90;;;;;;4956063;29;20401;-78
2023/08/02 06:59:11;;;;;;;4.30;3.17;;;18.20;99.90;;;;;;4959945;28;20420;-78
2023/08/02 07:01:36;;;;;;;3.08;2.70;;;18.10;99.90;;;;;;4957997;28;20409;-79
2023/08/02 07:04:02;;;;;;;3.60;3.25;;;18.30;99.90;;;;;;4955189;29;20897;-78
2023/08/02 07:06:27;;;;;;;3.07;2.60;;;18.30;99.90;;;;;;4940778;29;20906;-79
2023/08/02 07:08:53;;;;;;;3.70;3.22;;;18.30;99.90;;;;;;4939773;29;20390;-78
2023/08/02 07:11:19;;;;;;;4.27;3.10;;;18.60;99.90;;;;;;4973496;28;20415;-78
2023/08/02 07:13:45;;;;;;;3.30;2.80;;;18.50;99.90;;;;;;4958487;29;20436;-78
2023/08/02 07:16:11;;;;;;;4.28;3.20;;;18.60;99.90;;;;;;4959273;29;20807;-78
2023/08/02 07:18:36;;;;;;;3.60;2.90;;;18.50;99.90;;;;;;4959692;28;20422;-78
2023/08/02 07:21:06;;;;;;;3.53;3.23;;;18.80;99.90;;;;;;4961474;28;20398;-78
2023/08/02 07:23:32;;;;;;;3.35;3.05;;;18.70;99.90;;;;;;4981481;28;20431;-77
2023/08/02 07:25:58;;;;;;;3.10;2.80;;;18.80;99.90;;;;;;4962884;28;20481;-78
2023/08/02 07:28:23;;;;;;;3.23;2.67;;;18.90;99.90;;;;;;4976142;28;20392;-77
2023/08/02 07:30:49;;;;;;;3.80;3.27;;;19.20;99.90;;;;;;4970538;28;20414;-78
2023/08/02 07:33:14;;;;;;;4.93;3.20;;;19.20;99.90;;;;;;4930254;29;20844;-78
2023/08/02 07:35:40;;;;;;;3.23;2.63;;;19.40;99.90;;;;;;4939397;29;20400;-79
2023/08/02 07:38:05;;;;;;;3.75;3.03;;;19.50;99.90;;;;;;4939066;29;20434;-78
2023/08/02 07:40:31;;;;;;;3.30;3.00;;;19.60;99.90;;;;;;4945912;28;20392;-78
2023/08/02 07:42:56;;;;;;;3.58;2.60;;;19.80;99.90;;;;;;4977441;28;20388;-77
2023/08/02 07:45:22;;;;;;;4.20;3.10;;;19.90;99.90;;;;;;4974342;28;20447;-78
2023/08/02 07:47:47;;;;;;;3.70;2.70;;;19.90;99.90;;;;;;4980439;28;20411;-78
2023/08/02 07:50:13;;;;;;;4.15;2.90;;;19.90;99.90;;;;;;4980209;28;20396;-77
2023/08/02 07:52:39;;;;;;;3.20;2.80;;;20.10;99.90;;;;;;4978432;28;20400;-78
2023/08/02 07:55:04;;;;;;;3.93;3.00;;;20.10;99.90;;;;;;4969773;28;20390;-78
2023/08/02 07:57:31;;;;;;;3.58;2.85;;;20.20;99.90;;;;;;4969755;28;20792;-78
2023/08/02 07:59:58;;;;;;;3.42;2.92;;;20.10;99.90;;;;;;4981262;28;20396;-78
2023/08/02 08:02:25;;;;;;;2.88;2.67;;;20.10;99.90;;;;;;4980150;28;20400;-78
2023/08/02 08:04:51;;;;;;;3.08;2.78;;;20.10;99.90;;;;;;4963112;28;20392;-78
2023/08/02 08:07:16;;;;;;;5.27;3.50;;;20.20;99.90;;;;;;4974593;28;20485;-78
2023/08/02 08:09:42;;;;;;;3.40;2.63;;;20.40;99.90;;;;;;4960544;29;20530;-78
2023/08/02 08:12:08;;;;;;;3.83;2.93;;;20.50;99.90;;;;;;4961367;29;20398;-78
2023/08/02 08:14:34;;;;;;;3.28;2.97;;;20.70;99.90;;;;;;4966717;28;20465;-78
2023/08/02 08:17:00;;;;;;;3.73;3.13;;;20.70;99.90;;;;;;4961622;28;20397;-78
2023/08/02 08:19:27;;;;;;;3.47;2.80;;;20.70;99.90;;;;;;4998318;23;20442;-75
2023/08/02 08:21:52;;;;;;;3.80;3.20;;;20.80;99.90;;;;;;4990731;28;20379;-74
2023/08/02 08:24:18;;;;;;;3.30;2.97;;;21.00;99.90;;;;;;4980960;28;20408;-77
2023/08/02 08:26:44;;;;;;;4.10;3.05;;;21.10;99.90;;;;;;4936171;29;20406;-75
2023/08/02 08:29:09;;;;;;;3.10;2.80;;;20.90;99.90;;;;;;4919831;29;20424;-76
2023/08/02 08:31:36;;;;;;;3.20;2.90;;;21.10;99.90;;;;;;4916535;29;20394;-76
2023/08/02 08:34:01;;;;;;;3.00;2.70;;;21.10;99.90;;;;;;4946866;29;20461;-76
2023/08/02 08:36:29;;;;;;;3.85;2.90;;;21.30;99.90;;;;;;4951989;29;20438;-76
2023/08/02 08:38:55;;;;;;;2.90;2.45;;;21.40;99.90;;;;;;4951788;29;20902;-76
2023/08/02 08:41:21;;;;;;;3.28;2.88;;;21.20;99.90;;;;;;4951906;29;20393;-77
2023/08/02 08:43:47;;;;;;;3.80;2.93;;;21.30;99.90;;;;;;4935024;29;20397;-76
2023/08/02 08:46:13;;;;;;;4.77;3.30;;;21.30;99.90;;;;;;4952353;29;20397;-77
2023/08/02 08:48:39;;;;;;;3.33;3.03;;;21.30;99.90;;;;;;4951692;29;20414;-76
2023/08/02 08:51:05;;;;;;;2.90;2.57;;;21.30;99.90;;;;;;4952071;29;20452;-76
2023/08/02 08:53:35;;;;;;;3.40;3.10;;;21.40;99.90;;;;;;4951811;29;20424;-76
2023/08/02 08:56:03;;;;;;;3.72;3.33;;;21.60;99.90;;;;;;4934771;29;20405;-76
2023/08/02 08:58:29;;;;;;;4.90;2.95;;;21.70;99.90;;;;;;4951919;29;20473;-76
2023/08/02 09:00:56;;;;;;;6.80;3.47;;;21.70;99.90;;;;;;4952038;29;20448;-76
2023/08/02 09:03:22;;;;;;;3.47;2.90;;;21.50;99.90;;;;;;4951702;29;20389;-75
2023/08/02 09:05:49;;;;;;;3.80;3.22;;;21.70;99.90;;;;;;4951854;29;20408;-76
2023/08/02 09:08:15;;;;;;;3.40;3.00;;;21.70;99.90;;;;;;4934954;29;20405;-77
2023/08/02 09:10:41;;;;;;;3.60;3.00;;;21.70;99.90;;;;;;4951751;29;21024;-76
2023/08/02 09:13:20;;;;;;;4.03;3.50;;;21.80;99.90;;;;;;4951729;29;20767;-76
2023/08/02 09:15:46;;;;;;;3.30;2.80;;;21.80;99.90;;;;;;4951242;28;20405;-75
2023/08/02 09:18:11;;;;;;;3.20;2.90;;;21.90;99.90;;;;;;4936974;29;20751;-75
2023/08/02 09:20:37;;;;;;;3.88;3.15;;;21.90;99.90;;;;;;4955244;29;20472;-76
2023/08/02 09:23:14;;;;;;;3.40;3.00;;;22.00;99.90;;;;;;4937855;29;20389;-76
2023/08/02 09:25:40;;;;;;;3.87;3.03;;;21.90;99.90;;;;;;4955084;29;20398;-76
2023/08/02 09:28:11;;;;;;;4.23;3.40;;;22.10;99.90;;;;;;4955037;29;20401;-75
2023/08/02 09:30:36;;;;;;;5.00;2.97;;;22.10;99.90;;;;;;4962369;28;20400;-75
2023/08/02 09:33:03;;;;;;;3.73;2.90;;;22.10;99.90;;;;;;4959664;28;21211;-76
2023/08/02 09:35:45;;;;;;;3.67;3.20;;;22.30;99.90;;;;;;4955105;29;20386;-75
2023/08/02 09:38:10;;;;;;;3.53;3.22;;;22.40;99.90;;;;;;4954821;29;20386;-76
2023/08/02 09:40:38;;;;;;;3.50;3.20;;;22.50;99.90;;;;;;4938375;29;20395;-75
2023/08/02 09:43:03;;;;;;;3.50;3.20;;;22.50;99.90;;;;;;4935609;29;20494;-76
2023/08/02 09:45:33;;;;;;;3.57;3.07;;;22.50;99.90;;;;;;4952543;29;20828;-76
2023/08/02 09:47:59;;;;;;;3.80;3.10;;;22.50;99.90;;;;;;4954794;28;20397;-76
2023/08/02 09:50:25;;;;;;;3.80;3.20;;;22.70;99.90;;;;;;4937618;29;20394;-76
2023/08/02 09:52:51;;;;;;;4.25;2.88;;;22.90;99.90;;;;;;4954391;29;20405;-76
2023/08/02 09:55:16;;;;;;;3.50;3.20;;;23.00;99.90;;;;;;4939952;29;20472;-76
2023/08/02 09:57:47;;;;;;;4.17;2.87;;;23.10;99.90;;;;;;4936881;28;20804;-75
2023/08/02 10:00:13;;;;;;;3.70;3.00;;;23.10;99.90;;;;;;4965699;28;20907;-76
2023/08/02 10:02:39;;;;;;;3.90;2.90;;;23.10;99.90;;;;;;4973614;28;20747;-76
2023/08/02 10:05:07;;;;;;;3.63;2.80;;;23.20;99.90;;;;;;4973773;28;20465;-76
2023/08/02 10:07:38;;;;;;;4.47;3.17;;;23.30;99.90;;;;;;4970256;28;20390;-75
2023/08/02 10:10:06;;;;;;;4.10;3.20;;;23.30;99.90;;;;;;4954348;29;20382;-75
2023/08/02 10:12:37;;;;;;;4.50;3.50;;;23.50;99.90;;;;;;4937476;29;20894;-77
2023/08/02 10:15:03;;;;;;;4.38;3.50;;;23.40;99.90;;;;;;4955849;29;20472;-75
2023/08/02 10:17:31;;;;;;;3.92;3.28;;;23.40;99.90;;;;;;4936921;28;20402;-76
2023/08/02 10:20:00;;;;;;;3.70;3.10;;;23.50;99.90;;;;;;4953871;29;20436;-76
2023/08/02 10:22:26;;;;;;;3.28;2.97;;;23.60;99.90;;;;;;4936776;29;20408;-76
2023/08/02 10:24:52;;;;;;;3.33;3.03;;;23.80;99.90;;;;;;4953936;29;20782;-77
2023/08/02 10:27:19;;;;;;;4.68;3.55;;;23.90;99.90;;;;;;4936862;28;20413;-76
2023/08/02 10:29:47;;;;;;;4.00;3.20;;;24.10;99.90;;;;;;4936895;29;20449;-76
2023/08/02 10:32:13;;;;;;;4.00;3.65;;;24.00;99.90;;;;;;4953463;29;20421;-76
2023/08/02 10:34:39;;;;;;;3.80;3.20;;;24.20;99.90;;;;;;4934634;29;20419;-77
2023/08/02 10:37:04;;;;;;;5.05;3.33;;;24.00;99.90;;;;;;4917596;29;20898;-77
2023/08/02 10:39:45;;;;;;;4.37;3.20;;;24.10;99.90;;;;;;4934541;29;20394;-76
2023/08/02 10:42:23;;;;;;;3.20;2.90;;;24.00;99.90;;;;;;4935573;29;20760;-75
2023/08/02 10:44:54;;;;;;;4.38;2.97;;;24.00;99.90;;;;;;4953707;29;20778;-76
2023/08/02 10:47:33;;;;;;;4.18;3.10;;;23.90;99.90;;;;;;4953701;29;20398;-77
2023/08/02 10:50:01;;;;;;;3.50;3.10;;;24.00;99.90;;;;;;4936482;29;20412;-77
2023/08/02 10:52:33;;;;;;;3.10;2.80;;;24.30;99.90;;;;;;4953314;29;20397;-77
2023/08/02 10:55:10;;;;;;;3.90;2.70;;;24.40;99.90;;;;;;4953701;29;20943;-77
2023/08/02 10:57:38;;;;;;;4.07;3.10;;;24.50;99.90;;;;;;4954226;29;20794;-76
2023/08/02 11:00:17;;;;;;;3.90;3.15;;;24.60;99.90;;;;;;4953086;29;20778;-77
2023/08/02 11:02:50;;;;;;;3.35;2.88;;;24.60;99.90;;;;;;4953365;29;20397;-77
2023/08/02 11:05:35;;;;;;;4.18;3.30;;;24.70;99.90;;;;;;4936335;29;20794;-76
2023/08/02 11:08:00;;;;;;;6.20;2.87;;;24.90;99.90;;;;;;4953305;29;20449;-77
2023/08/02 11:10:26;;;;;;;4.53;2.97;;;25.10;99.90;;;;;;4935275;29;20489;-76
2023/08/02 11:12:53;;;;;;;3.00;2.70;;;25.10;99.90;;;;;;4952948;29;20874;-76
2023/08/02 11:15:19;;;;;;;3.00;2.70;;;25.10;99.90;;;;;;4953396;29;21101;-77
2023/08/02 11:17:46;;;;;;;3.40;3.00;;;25.20;99.90;;;;;;4952611;28;20444;-76
2023/08/02 11:20:14;;;;;;;4.53;2.53;;;25.30;99.90;;;;;;4953047;29;20922;-76
2023/08/02 11:22:40;;;;;;;3.40;2.70;;;25.40;99.90;;;;;;4953056;29;20401;-76
2023/08/02 11:25:09;;;;;;;3.33;2.60;;;25.30;99.90;;;;;;4952858;29;20390;-76
2023/08/02 11:27:35;;;;;;;3.80;2.38;;;25.10;99.90;;;;;;4935242;29;20910;-77
2023/08/02 11:30:01;;;;;;;3.20;2.50;;;25.20;99.90;;;;;;4935822;29;20404;-76
2023/08/02 11:32:28;;;;;;;3.63;2.20;;;25.30;99.90;;;;;;4933627;29;20410;-77
2023/08/02 11:34:54;;;;;;;3.20;2.60;;;25.30;99.90;;;;;;4916536;29;20447;-77
2023/08/02 11:37:20;;;;;;;2.90;2.25;;;25.30;99.90;;;;;;4933503;29;20467;-77
2023/08/02 11:39:58;;;;;;;2.80;2.30;;;25.10;99.90;;;;;;4933340;29;20394;-77
2023/08/02 11:42:25;;;;;;;2.90;2.50;;;25.20;99.90;;;;;;4948586;29;20402;-76
2023/08/02 11:44:51;;;;;;;3.08;2.15;;;25.00;99.90;;;;;;4935678;29;20453;-77
2023/08/02 11:47:17;;;;;;;3.35;2.72;;;25.00;99.90;;;;;;4952281;29;20406;-77
2023/08/02 11:49:59;;;;;;;4.10;2.57;;;25.00;99.90;;;;;;4935414;29;20409;-76
2023/08/02 11:52:26;;;;;;;3.38;2.22;;;25.20;99.90;;;;;;4935242;29;20485;-76
2023/08/02 11:54:52;;;;;;;4.15;2.60;;;25.40;99.90;;;;;;4952316;29;20504;-76
2023/08/02 11:57:18;;;;;;;5.13;2.80;;;25.40;99.90;;;;;;4952401;29;20394;-76
2023/08/02 11:59:46;;;;;;;2.72;2.38;;;25.20;99.90;;;;;;4952635;29;20402;-77
2023/08/02 12:02:34;;;;;;;2.83;1.93;;;25.30;99.90;;;;;;4952006;29;20409;-76
2023/08/02 12:05:05;;;;;;;3.70;2.17;;;25.30;99.90;;;;;;4952146;29;20401;-76
2023/08/02 12:07:38;;;;;;;2.53;2.15;;;25.30;99.90;;;;;;4952404;29;20398;-77
2023/08/02 12:10:04;;;;;;;2.90;1.83;;;25.60;99.90;;;;;;4935145;29;20397;-77
2023/08/02 12:12:32;;;;;;;3.10;1.92;;;25.70;99.90;;;;;;4952001;29;20830;-76
2023/08/02 12:15:08;;;;;;;3.42;2.30;;;26.00;99.90;;;;;;4933410;29;20430;-77
2023/08/02 12:17:33;;;;;;;4.00;2.10;;;25.90;99.90;;;;;;4933035;29;20467;-77
2023/08/02 12:19:59;;;;;;;2.17;1.90;;;25.80;99.90;;;;;;4933320;29;20994;-77
2023/08/02 12:22:24;;;;;;;2.13;1.77;;;26.10;99.90;;;;;;4943874;29;20398;-75
2023/08/02 12:25:04;;;;;;;2.00;1.80;;;25.90;99.90;;;;;;4952400;29;20397;-76
2023/08/02 12:27:30;;;;;;;2.78;2.10;;;25.90;99.90;;;;;;4952008;29;20917;-76
2023/08/02 12:30:10;;;;;;;2.30;1.80;;;26.60;99.90;;;;;;4935345;29;20398;-76
2023/08/02 12:32:36;;;;;;;2.00;1.70;;;26.90;99.90;;;;;;4948831;29;20411;-76
2023/08/02 12:35:08;;;;;;;4.93;2.20;;;27.10;99.90;;;;;;4919656;29;20414;-77
2023/08/02 12:37:34;;;;;;;1.50;1.40;;;27.50;99.90;;;;;;4934981;29;20477;-77
2023/08/02 12:40:00;;;;;;;2.30;1.45;;;26.80;99.90;;;;;;4952154;29;20389;-77
2023/08/02 12:42:26;;;;;;;4.30;1.93;;;26.50;99.90;;;;;;4952225;29;20468;-76
2023/08/02 12:44:51;;;;;;;2.50;1.70;;;26.10;99.90;;;;;;4952030;29;20822;-76
2023/08/02 12:47:17;;;;;;;2.90;1.30;;;25.80;99.90;;;;;;4934575;29;20457;-76